Kezdőlap
METAR-TAF:

METAR-TAF

Repülőterek :

Igloolik, Nunavut, Kanada

földrajzi szélesség: 69-22N, földrajzi hosszúság: 081-49W, magasság: 51 m

Jelenlegi meteorológiai megfigyelések

A jelentés 1 órával és 5 perccel ezelõtt készült, 19:00 UTC
Észak-északnyugati szél 6 kt
Hőmérséklet -33°C
Páratartalom 74%
Légköri nyomás 1021 hPa
Látótávolság: 24.1 km
Kevés felhő 14000 lábon
Szakadozott felhőzet 28000 lábon

METAR: CYGT 171900Z 34006KT 15SM FEW140 BKN280 M33/M36 A3014 RMK AS2CC3 SLP218

Idő: 15:05 (20:05 UTC)

Előrejelzés

A jelentés 1 órával és 55 perccel ezelõtt készült, 18:10 UTC
Az előrejelzés 17-én 18 óra UTC és 17-én 21 óra UTC között érvényes
Észak-északnyugati szél 8 kt
Látótávolság: 10 km
Kevés felhő 3000 lábon
Szórványos felhőzet 16000 lábon

TAF: CYGT 171810Z 1718/1721 33008KT P6SM FEW030 SCT160 RMK NXT FCST WILL BE ISSUED AT 181245Z

Meteorológiai megfigyelések és előrejelzések több, mint 4000 repülőtéren (METAR és TAF jelentéseket).

A térképen piros és sárga pontok jelzik az elérhető meteorológiai állomásokat.

Mozgassa az egeret a pont fölött, hogy megjelenjen az állomás neve.

Azután kattintson az időjárási megfigyelések és előrejelzések megtekintéséhez.

A térkép megváltoztatása: kattintson a fekete keresztel jelölt zöld gombra ráközelítéshez, a vonallal jelölt zöld gombra távolításhoz, vagy a zöld nyilakra a szomszédos térképek eléréséhez.


METAR-TAF: